createdAt,value
2023-01-29T00:04:24.934Z,20.72
2023-01-29T00:09:29.387Z,20.71
2023-01-29T00:14:32.168Z,20.72
2023-01-29T00:19:34.996Z,20.71
2023-01-29T00:24:39.543Z,20.72
2023-01-29T00:29:42.403Z,20.71
2023-01-29T00:34:45.284Z,20.70
2023-01-29T00:39:49.480Z,20.71
2023-01-29T00:45:01.280Z,20.69
2023-01-29T00:50:06.696Z,20.70
2023-01-29T00:55:11.920Z,20.69
2023-01-29T01:00:17.521Z,20.67
2023-01-29T01:05:21.529Z,20.68
2023-01-29T01:10:27.991Z,20.70
2023-01-29T01:15:34.832Z,20.70
2023-01-29T01:20:37.796Z,20.67
2023-01-29T01:25:42.286Z,20.69
2023-01-29T01:30:45.123Z,20.67
2023-01-29T01:35:48.002Z,20.68
2023-01-29T01:40:52.233Z,20.68
2023-01-29T01:45:55.085Z,20.67
2023-01-29T01:51:03.446Z,20.67
2023-01-29T01:56:10.707Z,20.68
2023-01-29T02:01:14.472Z,20.66
2023-01-29T02:06:34.985Z,20.67
2023-01-29T02:11:39.472Z,20.62
2023-01-29T02:16:42.324Z,20.65
2023-01-29T02:22:07.880Z,20.65
2023-01-29T02:27:15.000Z,20.65
2023-01-29T02:32:23.807Z,20.63
2023-01-29T02:37:33.746Z,20.63
2023-01-29T02:42:39.673Z,20.64
2023-01-29T02:47:48.904Z,20.64
2023-01-29T02:53:03.351Z,20.62
2023-01-29T02:58:11.761Z,20.63
2023-01-29T03:03:19.455Z,20.62
2023-01-29T03:08:37.041Z,20.63
2023-01-29T03:13:42.898Z,20.63
2023-01-29T03:18:51.062Z,20.62
2023-01-29T03:24:11.856Z,20.61
2023-01-29T03:29:32.391Z,20.63
2023-01-29T03:34:43.617Z,20.61
2023-01-29T03:39:46.521Z,20.59
2023-01-29T03:45:00.368Z,20.59
2023-01-29T03:50:07.203Z,20.59
2023-01-29T03:55:15.501Z,20.58
2023-01-29T04:00:21.162Z,20.60
2023-01-29T04:05:30.495Z,20.59
2023-01-29T04:10:35.762Z,20.59
2023-01-29T04:15:42.217Z,20.58
2023-01-29T04:20:46.795Z,20.59
2023-01-29T04:25:55.511Z,20.58
2023-01-29T04:31:01.831Z,20.57
2023-01-29T04:36:15.880Z,20.58
2023-01-29T04:41:23.158Z,20.57
2023-01-29T04:46:30.103Z,20.57
2023-01-29T04:51:39.481Z,20.56
2023-01-29T04:56:48.709Z,20.54
2023-01-29T05:01:52.059Z,20.56
2023-01-29T05:06:56.745Z,20.55
2023-01-29T05:11:59.951Z,20.55
2023-01-29T05:17:06.112Z,20.54
2023-01-29T05:22:11.886Z,20.54
2023-01-29T05:27:36.449Z,20.54
2023-01-29T05:32:39.697Z,20.53
2023-01-29T05:37:43.841Z,20.53
2023-01-29T05:42:46.616Z,20.54
2023-01-29T05:47:50.095Z,20.53
2023-01-29T05:52:59.876Z,20.52
2023-01-29T05:58:05.569Z,20.53
2023-01-29T06:03:08.959Z,20.51
2023-01-29T06:08:13.343Z,20.52
2023-01-29T06:13:16.184Z,20.50
2023-01-29T06:18:19.137Z,20.50
2023-01-29T06:23:23.289Z,20.52
2023-01-29T06:28:26.085Z,20.50
2023-01-29T06:33:28.960Z,20.52
2023-01-29T06:38:33.337Z,20.49
2023-01-29T06:43:36.194Z,20.51
2023-01-29T06:48:40.468Z,20.49
2023-01-29T06:53:46.178Z,20.49
2023-01-29T06:58:49.457Z,20.49
2023-01-29T07:03:52.349Z,20.49
2023-01-29T07:08:57.098Z,20.48
2023-01-29T07:13:59.926Z,20.49
2023-01-29T07:19:02.756Z,20.48
2023-01-29T07:24:07.687Z,20.49
2023-01-29T07:29:10.760Z,20.49
2023-01-29T07:34:13.547Z,20.49
2023-01-29T07:39:19.525Z,20.47
2023-01-29T07:44:22.344Z,20.48
2023-01-29T07:49:25.281Z,20.49
2023-01-29T07:54:29.460Z,20.46
2023-01-29T07:59:32.261Z,20.47
2023-01-29T08:04:35.061Z,20.48
2023-01-29T08:09:39.230Z,20.48
2023-01-29T08:14:42.038Z,20.46
2023-01-29T08:19:44.837Z,20.48
2023-01-29T08:24:54.351Z,20.46
2023-01-29T08:30:03.032Z,20.47
2023-01-29T08:35:06.634Z,20.48
2023-01-29T08:40:13.336Z,20.50
2023-01-29T08:45:16.685Z,20.50
2023-01-29T08:50:19.829Z,20.49
2023-01-29T08:55:24.185Z,20.50
2023-01-29T09:00:27.289Z,20.50
2023-01-29T09:05:30.548Z,20.48
2023-01-29T09:10:34.988Z,20.48
2023-01-29T09:15:37.822Z,20.48
2023-01-29T09:20:40.666Z,20.51
2023-01-29T09:25:45.064Z,20.50
2023-01-29T09:30:48.060Z,20.51
2023-01-29T09:35:50.974Z,20.53
2023-01-29T09:41:01.420Z,20.53
2023-01-29T09:46:08.359Z,20.53
2023-01-29T09:51:17.653Z,20.55
2023-01-29T09:56:23.691Z,20.54
2023-01-29T10:01:33.095Z,20.54
2023-01-29T10:06:45.237Z,20.54
2023-01-29T10:11:58.188Z,20.56
2023-01-29T10:17:11.806Z,20.56
2023-01-29T10:22:34.861Z,20.56
2023-01-29T10:27:41.215Z,20.56
2023-01-29T10:32:44.091Z,20.58
2023-01-29T10:37:47.013Z,20.60
2023-01-29T10:42:57.650Z,20.61
2023-01-29T10:48:18.783Z,20.63
2023-01-29T10:53:42.684Z,20.64
2023-01-29T10:58:51.348Z,20.66
2023-01-29T11:03:59.236Z,20.68
2023-01-29T11:09:09.013Z,20.70
2023-01-29T11:14:15.141Z,20.70
2023-01-29T11:19:18.068Z,20.71
2023-01-29T11:24:21.267Z,20.72
2023-01-29T11:29:40.101Z,20.73
2023-01-29T11:35:03.418Z,20.73
2023-01-29T11:40:46.010Z,20.74
2023-01-29T11:45:51.973Z,20.74
2023-01-29T11:50:56.662Z,20.76
2023-01-29T11:55:59.666Z,20.76
2023-01-29T12:01:04.498Z,20.77
2023-01-29T12:06:18.519Z,20.76
2023-01-29T12:11:26.633Z,20.77
2023-01-29T12:16:32.919Z,20.78
2023-01-29T12:21:38.184Z,20.79
2023-01-29T12:26:46.799Z,20.80
2023-01-29T12:32:00.315Z,20.81
2023-01-29T12:37:07.889Z,20.79
2023-01-29T12:42:15.456Z,20.80
2023-01-29T12:47:22.235Z,20.80
2023-01-29T12:52:35.944Z,20.80
2023-01-29T12:57:43.768Z,20.80
2023-01-29T13:02:51.293Z,20.82
2023-01-29T13:07:59.622Z,20.80
2023-01-29T13:13:05.406Z,20.81
2023-01-29T13:18:23.918Z,20.80
2023-01-29T13:23:32.043Z,20.81
2023-01-29T13:28:35.105Z,20.80
2023-01-29T13:33:40.022Z,20.80
2023-01-29T13:38:45.448Z,20.79
2023-01-29T13:43:50.268Z,20.80
2023-01-29T13:48:58.251Z,20.80
2023-01-29T13:54:05.462Z,20.80
2023-01-29T13:59:24.778Z,20.79
2023-01-29T14:04:30.613Z,20.81
2023-01-29T14:10:07.397Z,20.82
2023-01-29T14:15:22.599Z,20.81
2023-01-29T14:20:45.042Z,20.80
2023-01-29T14:25:49.573Z,20.80
2023-01-29T14:30:52.863Z,20.80
2023-01-29T14:35:59.478Z,20.79
2023-01-29T14:41:09.873Z,20.81
2023-01-29T14:46:42.985Z,20.80
2023-01-29T14:51:47.604Z,20.79
2023-01-29T14:56:58.397Z,20.79
2023-01-29T15:02:04.744Z,20.79
2023-01-29T15:07:24.941Z,20.77
2023-01-29T15:12:31.984Z,20.78
2023-01-29T15:17:39.126Z,20.76
2023-01-29T15:22:44.989Z,20.77
2023-01-29T15:27:48.081Z,20.77
2023-01-29T15:32:51.066Z,20.75
2023-01-29T15:38:03.450Z,20.74
2023-01-29T15:43:19.356Z,20.74
2023-01-29T15:48:26.376Z,20.72
2023-01-29T15:53:34.341Z,20.72
2023-01-29T15:58:37.733Z,20.73
2023-01-29T16:03:40.697Z,20.71
2023-01-29T16:08:46.118Z,20.71
2023-01-29T16:13:51.157Z,20.71
2023-01-29T16:19:00.374Z,20.68
2023-01-29T16:24:09.530Z,20.69
2023-01-29T16:29:15.972Z,20.68
2023-01-29T16:34:30.062Z,20.66
2023-01-29T16:39:36.948Z,20.65
2023-01-29T16:44:40.964Z,20.66
2023-01-29T16:49:46.991Z,20.64
2023-01-29T16:54:51.262Z,20.62
2023-01-29T16:59:55.759Z,20.64
2023-01-29T17:05:01.125Z,20.62
2023-01-29T17:10:07.367Z,20.62
2023-01-29T17:15:31.790Z,20.61
2023-01-29T17:20:34.852Z,20.62
2023-01-29T17:25:39.149Z,20.62
2023-01-29T17:30:44.691Z,20.59
2023-01-29T17:35:47.730Z,20.61
2023-01-29T17:40:54.814Z,20.61
2023-01-29T17:45:57.879Z,20.60
2023-01-29T17:51:03.506Z,20.58
2023-01-29T17:56:10.869Z,20.59
2023-01-29T18:01:13.680Z,20.58
2023-01-29T18:06:22.857Z,20.58
2023-01-29T18:11:28.085Z,20.58
2023-01-29T18:16:36.609Z,20.60
2023-01-29T18:21:40.033Z,20.57
2023-01-29T18:26:44.286Z,20.57
2023-01-29T18:31:49.153Z,20.58
2023-01-29T18:36:52.144Z,20.57
2023-01-29T18:41:57.101Z,20.57
2023-01-29T18:46:59.943Z,20.57
2023-01-29T18:52:02.782Z,20.58
2023-01-29T18:57:14.607Z,20.59
2023-01-29T19:02:20.162Z,20.58
2023-01-29T19:07:23.158Z,20.58
2023-01-29T19:12:27.338Z,20.58
2023-01-29T19:17:30.207Z,20.59
2023-01-29T19:22:33.352Z,20.59
2023-01-29T19:27:37.662Z,20.56
2023-01-29T19:32:40.775Z,20.55
2023-01-29T19:37:43.657Z,20.54
2023-01-29T19:42:47.902Z,20.54
2023-01-29T19:47:50.883Z,20.54
2023-01-29T19:52:55.422Z,20.57
2023-01-29T19:58:00.465Z,20.58
2023-01-29T20:03:03.261Z,20.56
2023-01-29T20:08:06.533Z,20.57
2023-01-29T20:13:10.779Z,20.56
2023-01-29T20:18:14.213Z,20.53
2023-01-29T20:23:31.813Z,20.56
2023-01-29T20:28:41.051Z,20.52
2023-01-29T20:33:44.460Z,20.55
2023-01-29T20:38:47.992Z,20.52
2023-01-29T20:43:52.205Z,20.51
2023-01-29T20:48:55.767Z,20.51
2023-01-29T20:53:58.602Z,20.51
2023-01-29T20:59:03.613Z,20.51
2023-01-29T21:04:06.481Z,20.50
2023-01-29T21:09:09.556Z,20.49
2023-01-29T21:14:14.580Z,20.51
2023-01-29T21:19:17.524Z,20.49
2023-01-29T21:24:20.350Z,20.48
2023-01-29T21:29:24.480Z,20.48
2023-01-29T21:34:27.368Z,20.49
2023-01-29T21:39:30.188Z,20.47
2023-01-29T21:44:35.751Z,20.46
2023-01-29T21:49:40.504Z,20.47
2023-01-29T21:54:48.971Z,20.45
2023-01-29T21:59:54.299Z,20.43
2023-01-29T22:05:12.408Z,20.44
2023-01-29T22:10:21.353Z,20.44
2023-01-29T22:15:25.838Z,20.43
2023-01-29T22:20:32.234Z,20.43
2023-01-29T22:25:36.084Z,20.42
2023-01-29T22:30:42.517Z,20.43
2023-01-29T22:35:45.674Z,20.42
2023-01-29T22:40:50.295Z,20.41
2023-01-29T22:45:54.622Z,20.40
2023-01-29T22:51:09.988Z,20.41
2023-01-29T22:56:13.036Z,20.39
2023-01-29T23:01:18.871Z,20.40
2023-01-29T23:06:22.366Z,20.40
2023-01-29T23:11:25.258Z,20.40
2023-01-29T23:16:29.724Z,20.39
2023-01-29T23:21:32.547Z,20.39
2023-01-29T23:26:52.872Z,20.40
2023-01-29T23:31:57.016Z,20.41
2023-01-29T23:37:00.017Z,20.40
2023-01-29T23:42:03.231Z,20.38
2023-01-29T23:47:07.652Z,20.40
2023-01-29T23:52:10.565Z,20.37
2023-01-29T23:57:13.402Z,20.37
